Kenai Municipal Airport Kenai US
ICAO: PAEN
IATA:
Category: Medium
Scheduled Services:

Elevation: 99 ft
TransAlt. 18000 ft.

Airport Communications:
ATIS:120.3
ANCHORAGE CNTR:125.7
CTAF:121.3
RDO:122.65
GND:121.9
TWEB:117.6
TWR:121.3

PAEN Zoom In..

If you have problems with the map follow the link
https://www.worldairports.se/pages/airport.php?
ICAO=PAEN

Runways:

(A) RW 01L length 7830 ft width 150 ft
---- / hdg 12

(B) RW 01R length 2000 ft width 60 ft
---- / hdg 12

(C) RW 19L length 2000 ft width 60 ft
---- / hdg 192

(D) RW 19R length 7830 ft width 150 ft
ILS 108.90 / hdg 192

Location; PAEN
Day. 21 / Time. 07.53 Zulu
* Altimeter: 29.37
* Temperature: 07° c. 44.6°f.
* Wind from: 030° Speed 17 kn with Gusts up to 26 kn.
Dewpoint: 04° c.
Visibility: 10 Statute Miles.
Clouds: Broken 4900 ft.
Clouds: Broken 7000 ft.

PAEN 210753Z AUTO 03017G26KT 10SM BKN049 BKN070 07/04 A2937 RMK AO2 PK WND 04030/0741 RAE24 SLP947 P0000 T00720039 TSNO


Wind From 030°
Speed 17 kn.

 
 
jpsmedia.com for Web Design worldairports.se 2018   terms of use